createdAt,value
2022-10-20T00:00:15.560Z,39.70
2022-10-20T00:00:46.961Z,39.79
2022-10-20T00:01:18.490Z,39.59
2022-10-20T00:01:49.905Z,39.68
2022-10-20T00:02:21.357Z,39.85
2022-10-20T00:02:52.846Z,39.84
2022-10-20T00:03:24.249Z,40.16
2022-10-20T00:03:55.633Z,39.75
2022-10-20T00:04:27.020Z,39.94
2022-10-20T00:04:58.413Z,39.70
2022-10-20T00:05:29.842Z,39.61
2022-10-20T00:06:01.237Z,39.89
2022-10-20T00:06:32.645Z,39.80
2022-10-20T00:07:04.035Z,39.72
2022-10-20T00:07:35.434Z,39.69
2022-10-20T00:08:06.834Z,39.97
2022-10-20T00:08:38.293Z,39.83
2022-10-20T00:09:09.796Z,39.93
2022-10-20T00:09:41.259Z,39.46
2022-10-20T00:10:12.644Z,39.86
2022-10-20T00:10:44.089Z,39.82
2022-10-20T00:11:15.507Z,39.73
2022-10-20T00:11:46.983Z,39.55
2022-10-20T00:12:18.372Z,40.02
2022-10-20T00:12:49.804Z,39.75
2022-10-20T00:13:21.188Z,39.63
2022-10-20T00:13:52.576Z,39.55
2022-10-20T00:14:23.965Z,40.09
2022-10-20T00:14:55.349Z,39.28
2022-10-20T00:15:26.751Z,39.58
2022-10-20T00:15:58.156Z,40.09
2022-10-20T00:16:29.643Z,40.00
2022-10-20T00:17:01.036Z,39.49
2022-10-20T00:17:32.424Z,39.81
2022-10-20T00:18:03.815Z,39.60
2022-10-20T00:18:35.204Z,40.08
2022-10-20T00:19:06.596Z,40.09
2022-10-20T00:19:38.001Z,40.29
2022-10-20T00:20:09.431Z,39.83
2022-10-20T00:20:40.872Z,39.99
2022-10-20T00:21:12.262Z,39.98
2022-10-20T00:21:43.777Z,39.97
2022-10-20T00:22:15.168Z,39.75
2022-10-20T00:22:46.559Z,39.65
2022-10-20T00:23:17.951Z,39.66
2022-10-20T00:23:49.362Z,39.51
2022-10-20T00:24:20.761Z,39.88
2022-10-20T00:24:52.165Z,40.13
2022-10-20T00:25:23.577Z,40.08
2022-10-20T00:25:54.988Z,39.88
2022-10-20T00:26:26.513Z,40.24
2022-10-20T00:26:57.923Z,39.84
2022-10-20T00:27:29.304Z,39.90
2022-10-20T00:28:00.682Z,40.02
2022-10-20T00:28:32.089Z,39.86
2022-10-20T00:29:03.472Z,40.01
2022-10-20T00:29:34.861Z,40.07
2022-10-20T00:30:06.262Z,39.84
2022-10-20T00:30:37.684Z,39.78
2022-10-20T00:31:09.077Z,39.70
2022-10-20T00:31:40.563Z,39.93
2022-10-20T00:32:11.953Z,40.13
2022-10-20T00:32:43.371Z,40.06
2022-10-20T00:33:14.772Z,40.07
2022-10-20T00:33:46.157Z,40.23
2022-10-20T00:34:17.564Z,40.01
2022-10-20T00:34:48.991Z,40.24
2022-10-20T00:35:20.378Z,39.75
2022-10-20T00:35:51.768Z,40.11
2022-10-20T00:36:23.162Z,40.19
2022-10-20T00:36:54.629Z,40.04
2022-10-20T00:37:26.017Z,40.40
2022-10-20T00:37:57.422Z,39.97
2022-10-20T00:38:28.832Z,40.19
2022-10-20T00:39:00.235Z,40.18
2022-10-20T00:39:31.634Z,40.00
2022-10-20T00:40:03.030Z,40.13
2022-10-20T00:40:34.424Z,40.12
2022-10-20T00:41:05.820Z,39.81
2022-10-20T00:41:37.203Z,39.94
2022-10-20T00:42:08.689Z,40.17
2022-10-20T00:42:40.107Z,40.29
2022-10-20T00:43:11.517Z,40.14
2022-10-20T00:43:42.909Z,40.17
2022-10-20T00:44:14.310Z,40.02
2022-10-20T00:44:45.711Z,39.95
2022-10-20T00:45:17.109Z,40.32
2022-10-20T00:45:48.498Z,39.90
2022-10-20T00:46:19.892Z,40.56
2022-10-20T00:46:51.271Z,40.03
2022-10-20T00:47:22.738Z,40.24
2022-10-20T00:47:54.149Z,40.25
2022-10-20T00:48:25.537Z,39.79
2022-10-20T00:48:56.933Z,40.32
2022-10-20T00:49:28.321Z,40.14
2022-10-20T00:49:59.725Z,39.79
2022-10-20T00:50:31.112Z,40.50
2022-10-20T00:51:02.600Z,40.02
2022-10-20T00:51:34.008Z,40.21
2022-10-20T00:52:05.396Z,40.47
2022-10-20T00:52:37.074Z,40.22
2022-10-20T00:53:08.732Z,40.11
2022-10-20T00:53:40.137Z,40.21
2022-10-20T00:54:11.528Z,40.07
2022-10-20T00:54:42.921Z,40.19
2022-10-20T00:55:14.310Z,40.43
2022-10-20T00:55:45.691Z,40.04
2022-10-20T00:56:17.081Z,40.33
2022-10-20T00:56:48.557Z,40.45
2022-10-20T00:57:20.042Z,40.48
2022-10-20T00:57:51.435Z,40.15
2022-10-20T00:58:22.821Z,40.64
2022-10-20T00:58:54.208Z,40.30
2022-10-20T00:59:25.618Z,40.52
2022-10-20T00:59:57.029Z,40.46
2022-10-20T01:00:28.504Z,40.35
2022-10-20T01:00:59.916Z,40.58
2022-10-20T01:01:31.362Z,40.69
2022-10-20T01:02:02.849Z,40.08
2022-10-20T01:02:34.256Z,40.48
2022-10-20T01:03:05.941Z,40.23
2022-10-20T01:03:37.348Z,40.25
2022-10-20T01:04:08.753Z,40.40
2022-10-20T01:04:40.163Z,40.50
2022-10-20T01:05:11.564Z,40.59
2022-10-20T01:05:42.952Z,40.58
2022-10-20T01:06:14.403Z,40.39
2022-10-20T01:06:45.884Z,40.62
2022-10-20T01:07:17.276Z,40.33
2022-10-20T01:07:48.670Z,40.65
2022-10-20T01:08:20.222Z,40.73
2022-10-20T01:08:51.701Z,40.71
2022-10-20T01:09:23.128Z,40.46
2022-10-20T01:09:54.514Z,40.69
2022-10-20T01:10:25.912Z,40.65
2022-10-20T01:10:57.317Z,40.20
2022-10-20T01:11:28.751Z,40.50
2022-10-20T01:12:00.135Z,40.32
2022-10-20T01:12:31.540Z,40.53
2022-10-20T01:13:02.929Z,40.96
2022-10-20T01:13:34.473Z,40.30
2022-10-20T01:14:05.885Z,40.54
2022-10-20T01:14:37.276Z,40.44
2022-10-20T01:15:08.662Z,40.23
2022-10-20T01:15:40.131Z,40.73
2022-10-20T01:16:11.531Z,40.68
2022-10-20T01:16:42.935Z,40.57
2022-10-20T01:17:14.364Z,40.66
2022-10-20T01:17:45.753Z,40.29
2022-10-20T01:18:17.131Z,40.68
2022-10-20T01:18:48.648Z,40.53
2022-10-20T01:19:20.057Z,40.61
2022-10-20T01:19:51.471Z,40.89
2022-10-20T01:20:22.864Z,40.50
2022-10-20T01:20:54.255Z,40.46
2022-10-20T01:21:25.656Z,40.97
2022-10-20T01:21:57.064Z,40.58
2022-10-20T01:22:28.453Z,40.89
2022-10-20T01:22:59.844Z,40.68
2022-10-20T01:23:31.229Z,40.46
2022-10-20T01:24:02.652Z,40.21
2022-10-20T01:24:34.047Z,40.36
2022-10-20T01:25:05.434Z,40.71
2022-10-20T01:25:36.840Z,40.58
2022-10-20T01:26:08.244Z,40.62
2022-10-20T01:26:39.631Z,41.01
2022-10-20T01:27:11.032Z,40.71
2022-10-20T01:27:42.416Z,40.76
2022-10-20T01:28:13.810Z,40.68
2022-10-20T01:28:45.195Z,40.86
2022-10-20T01:29:16.656Z,40.81
2022-10-20T01:29:48.049Z,40.65
2022-10-20T01:30:19.458Z,40.65
2022-10-20T01:30:50.858Z,40.70
2022-10-20T01:31:22.249Z,40.69
2022-10-20T01:31:53.635Z,40.92
2022-10-20T01:32:25.021Z,40.71
2022-10-20T01:32:56.409Z,40.53
2022-10-20T01:34:00.109Z,40.57
2022-10-20T01:34:31.549Z,40.80
2022-10-20T01:35:02.952Z,40.69
2022-10-20T01:35:34.359Z,40.48
2022-10-20T01:36:05.772Z,40.06
2022-10-20T01:36:37.166Z,40.81
2022-10-20T01:37:08.552Z,40.36
2022-10-20T01:37:48.756Z,40.59
2022-10-20T01:38:20.800Z,40.79
2022-10-20T01:38:52.205Z,40.80
2022-10-20T01:39:23.617Z,40.96
2022-10-20T01:39:55.020Z,40.59
2022-10-20T01:40:26.427Z,40.92
2022-10-20T01:40:57.827Z,41.20
2022-10-20T01:41:29.225Z,40.91
2022-10-20T01:42:00.609Z,41.08
2022-10-20T01:42:32.042Z,40.65
2022-10-20T01:43:03.532Z,40.65
2022-10-20T01:43:34.916Z,40.65
2022-10-20T01:44:06.314Z,40.92
2022-10-20T01:44:37.762Z,40.73
2022-10-20T01:45:09.153Z,41.02
2022-10-20T01:45:40.555Z,41.01
2022-10-20T01:46:11.950Z,41.08
2022-10-20T01:46:43.360Z,40.80
2022-10-20T01:47:14.747Z,40.93
2022-10-20T01:47:46.128Z,41.14
2022-10-20T01:48:17.519Z,40.82
2022-10-20T01:48:48.908Z,41.23
2022-10-20T01:49:20.455Z,40.83
2022-10-20T01:49:51.840Z,40.75
2022-10-20T01:50:23.257Z,41.25
2022-10-20T01:50:54.640Z,41.30
2022-10-20T01:51:26.281Z,41.24
2022-10-20T01:51:57.649Z,40.89
2022-10-20T01:52:29.037Z,41.17
2022-10-20T01:53:00.429Z,41.23
2022-10-20T01:53:31.844Z,41.41
2022-10-20T01:54:03.240Z,41.32
2022-10-20T01:54:34.750Z,40.82
2022-10-20T01:55:06.157Z,41.29
2022-10-20T01:55:37.540Z,41.46
2022-10-20T01:56:08.923Z,41.06
2022-10-20T01:56:40.318Z,40.95
2022-10-20T01:57:11.708Z,40.99
2022-10-20T01:57:43.092Z,41.24
2022-10-20T01:58:14.476Z,40.96
2022-10-20T01:58:45.878Z,41.37
2022-10-20T01:59:17.293Z,41.13
2022-10-20T01:59:48.799Z,41.22
2022-10-20T02:00:20.202Z,40.85
2022-10-20T02:00:51.641Z,41.01
2022-10-20T02:01:23.097Z,41.10
2022-10-20T02:01:54.603Z,41.02
2022-10-20T02:02:26.076Z,40.97
2022-10-20T02:02:57.470Z,41.03
2022-10-20T02:03:28.861Z,41.24
2022-10-20T02:04:00.263Z,41.32
2022-10-20T02:04:31.659Z,41.25
2022-10-20T02:05:03.154Z,41.28
2022-10-20T02:05:34.545Z,41.06
2022-10-20T02:06:05.946Z,41.09
2022-10-20T02:06:37.370Z,41.12
2022-10-20T02:07:08.752Z,41.02
2022-10-20T02:07:40.145Z,41.05
2022-10-20T02:08:11.612Z,41.09
2022-10-20T02:08:43.053Z,41.70
2022-10-20T02:09:14.447Z,41.36
2022-10-20T02:09:45.907Z,41.80
2022-10-20T02:10:17.415Z,41.36
2022-10-20T02:10:48.806Z,41.25
2022-10-20T02:11:20.188Z,41.10
2022-10-20T02:11:51.580Z,41.50
2022-10-20T02:12:22.987Z,41.65
2022-10-20T02:12:54.379Z,40.96
2022-10-20T02:13:25.764Z,41.61
2022-10-20T02:13:57.160Z,41.22
2022-10-20T02:14:28.556Z,41.42
2022-10-20T02:15:00.045Z,41.47
2022-10-20T02:15:31.469Z,41.49
2022-10-20T02:16:02.871Z,41.49
2022-10-20T02:16:34.271Z,41.50
2022-10-20T02:17:05.665Z,41.41
2022-10-20T02:17:37.064Z,41.58
2022-10-20T02:18:08.465Z,41.63
2022-10-20T02:18:39.857Z,41.24
2022-10-20T02:19:11.249Z,41.20
2022-10-20T02:19:42.659Z,41.65
2022-10-20T02:20:14.230Z,41.70
2022-10-20T02:20:45.613Z,41.47
2022-10-20T02:21:17.005Z,41.02
2022-10-20T02:21:48.404Z,41.67
2022-10-20T02:22:19.804Z,41.26
2022-10-20T02:22:51.237Z,41.67
2022-10-20T02:23:22.624Z,41.22
2022-10-20T02:23:54.009Z,41.30
2022-10-20T02:24:25.420Z,41.77
2022-10-20T02:24:56.804Z,41.51
2022-10-20T02:25:28.256Z,41.38
2022-10-20T02:25:59.664Z,41.98
2022-10-20T02:26:31.049Z,41.80
2022-10-20T02:27:02.438Z,41.78
2022-10-20T02:27:33.841Z,41.61
2022-10-20T02:28:05.231Z,41.31
2022-10-20T02:28:36.664Z,41.85
2022-10-20T02:29:08.086Z,41.69
2022-10-20T02:29:39.477Z,41.58
2022-10-20T02:30:10.864Z,41.53
2022-10-20T02:30:42.317Z,41.87
2022-10-20T02:31:13.704Z,41.84
2022-10-20T02:31:45.098Z,42.00
2022-10-20T02:32:16.496Z,41.74
2022-10-20T02:32:47.904Z,41.47
2022-10-20T02:33:19.292Z,41.71
2022-10-20T02:33:50.676Z,41.87
2022-10-20T02:34:22.071Z,41.83
2022-10-20T02:34:53.487Z,41.69
2022-10-20T02:35:24.872Z,41.70
2022-10-20T02:35:56.502Z,41.85
2022-10-20T02:36:27.904Z,41.48
2022-10-20T02:36:59.293Z,41.77
2022-10-20T02:37:30.681Z,41.63
2022-10-20T02:38:02.074Z,41.60
2022-10-20T02:38:33.488Z,41.57
2022-10-20T02:39:04.894Z,42.13
2022-10-20T02:39:36.285Z,41.81
2022-10-20T02:40:07.672Z,41.97
2022-10-20T02:40:39.085Z,42.13
2022-10-20T02:41:10.510Z,41.94
2022-10-20T02:41:41.908Z,41.77
2022-10-20T02:42:13.325Z,41.68
2022-10-20T02:42:44.739Z,41.81
2022-10-20T02:43:16.128Z,41.69
2022-10-20T02:43:47.573Z,42.17
2022-10-20T02:44:18.971Z,41.96
2022-10-20T02:44:50.365Z,42.00
2022-10-20T02:45:21.769Z,41.64
2022-10-20T02:45:53.171Z,42.22
2022-10-20T02:46:24.709Z,42.12
2022-10-20T02:46:56.094Z,41.94
2022-10-20T02:47:27.493Z,42.07
2022-10-20T02:47:58.878Z,41.81
2022-10-20T02:48:30.268Z,42.14
2022-10-20T02:49:01.657Z,41.67
2022-10-20T02:49:33.120Z,41.72
2022-10-20T02:50:04.523Z,42.18
2022-10-20T02:50:35.917Z,42.18
2022-10-20T02:51:07.308Z,41.86
2022-10-20T02:51:38.765Z,42.01
2022-10-20T02:52:10.205Z,42.29
2022-10-20T02:52:41.652Z,42.31
2022-10-20T02:53:13.035Z,41.84
2022-10-20T02:53:44.421Z,41.61
2022-10-20T02:54:15.811Z,41.99
2022-10-20T02:54:47.205Z,42.27
2022-10-20T02:55:54.879Z,42.10
2022-10-20T02:56:28.848Z,42.14
2022-10-20T02:57:02.454Z,42.07
2022-10-20T02:57:34.050Z,42.20
2022-10-20T02:58:05.716Z,41.86
2022-10-20T02:58:37.125Z,42.04
2022-10-20T02:59:08.524Z,42.15
2022-10-20T02:59:39.932Z,42.04
2022-10-20T03:00:11.320Z,41.86
2022-10-20T03:00:42.719Z,42.15
2022-10-20T03:01:14.164Z,42.29
2022-10-20T03:01:45.701Z,42.04
2022-10-20T03:02:17.250Z,42.39
2022-10-20T03:02:48.671Z,42.33
2022-10-20T03:03:20.071Z,42.30
2022-10-20T03:03:51.463Z,42.62
2022-10-20T03:04:22.918Z,42.45
2022-10-20T03:04:54.397Z,42.33
2022-10-20T03:05:25.784Z,42.02
2022-10-20T03:05:57.176Z,42.41
2022-10-20T03:06:28.571Z,42.29
2022-10-20T03:06:59.964Z,42.26
2022-10-20T03:07:31.495Z,41.79
2022-10-20T03:08:02.886Z,42.47
2022-10-20T03:08:34.344Z,42.50
2022-10-20T03:09:05.836Z,42.34
2022-10-20T03:09:37.229Z,42.38
2022-10-20T03:10:08.621Z,42.35
2022-10-20T03:10:40.037Z,42.14
2022-10-20T03:11:11.459Z,42.08
2022-10-20T03:11:42.845Z,42.37
2022-10-20T03:12:14.324Z,42.27
2022-10-20T03:12:45.716Z,42.76
2022-10-20T03:13:17.140Z,42.57
2022-10-20T03:13:48.568Z,41.86
2022-10-20T03:14:19.953Z,42.17
2022-10-20T03:14:51.417Z,42.19
2022-10-20T03:15:22.803Z,42.07
2022-10-20T03:15:54.197Z,42.41
2022-10-20T03:16:25.580Z,42.29
2022-10-20T03:16:56.984Z,42.30
2022-10-20T03:17:28.393Z,42.76
2022-10-20T03:17:59.912Z,42.73
2022-10-20T03:18:31.296Z,42.41
2022-10-20T03:19:05.298Z,42.78
2022-10-20T03:19:38.624Z,42.47
2022-10-20T03:20:10.014Z,42.46
2022-10-20T03:20:41.413Z,42.69
2022-10-20T03:21:12.812Z,42.55
2022-10-20T03:21:44.201Z,42.53
2022-10-20T03:22:15.596Z,42.29
2022-10-20T03:22:46.980Z,42.75
2022-10-20T03:23:20.072Z,42.77
2022-10-20T03:23:51.711Z,42.47
2022-10-20T03:24:23.119Z,42.71
2022-10-20T03:24:54.511Z,42.53
2022-10-20T03:25:25.904Z,42.54
2022-10-20T03:25:57.294Z,42.68
2022-10-20T03:26:28.684Z,42.55
2022-10-20T03:27:00.092Z,42.76
2022-10-20T03:27:31.476Z,42.27
2022-10-20T03:28:02.865Z,42.82
2022-10-20T03:28:34.390Z,42.60
2022-10-20T03:29:05.804Z,42.78
2022-10-20T03:29:37.210Z,42.55
2022-10-20T03:30:08.617Z,42.74
2022-10-20T03:30:40.000Z,42.02
2022-10-20T03:31:11.419Z,42.67
2022-10-20T03:31:42.868Z,42.49
2022-10-20T03:32:14.296Z,42.71
2022-10-20T03:32:45.689Z,42.60
2022-10-20T03:33:17.072Z,42.62
2022-10-20T03:33:48.513Z,42.88
2022-10-20T03:34:19.898Z,42.46
2022-10-20T03:34:51.287Z,42.87
2022-10-20T03:35:22.672Z,42.96
2022-10-20T03:35:54.059Z,42.52
2022-10-20T03:36:25.469Z,42.55
2022-10-20T03:36:56.864Z,42.65
2022-10-20T03:37:28.256Z,42.47
2022-10-20T03:37:59.659Z,43.05
2022-10-20T03:38:31.064Z,42.57
2022-10-20T03:39:02.525Z,42.92
2022-10-20T03:39:33.940Z,43.03
2022-10-20T03:40:05.333Z,42.76
2022-10-20T03:40:36.726Z,42.77
2022-10-20T03:41:08.112Z,42.86
2022-10-20T03:41:39.502Z,42.69
2022-10-20T03:42:10.901Z,42.99
2022-10-20T03:42:42.289Z,42.71
2022-10-20T03:43:13.677Z,42.87
2022-10-20T03:43:45.096Z,42.89
2022-10-20T03:44:16.580Z,42.72
2022-10-20T03:44:47.970Z,43.04
2022-10-20T03:45:19.360Z,42.74
2022-10-20T03:45:50.758Z,42.88
2022-10-20T03:46:22.152Z,42.85
2022-10-20T03:46:53.555Z,43.02
2022-10-20T03:47:24.962Z,42.87
2022-10-20T03:47:56.365Z,42.89
2022-10-20T03:48:27.751Z,43.12
2022-10-20T03:48:59.141Z,42.94
2022-10-20T03:49:30.648Z,42.81
2022-10-20T03:50:02.102Z,43.06
2022-10-20T03:50:33.587Z,42.82
2022-10-20T03:51:04.996Z,42.81
2022-10-20T03:51:36.379Z,42.89
2022-10-20T03:52:07.827Z,42.86
2022-10-20T03:52:39.297Z,42.92
2022-10-20T03:53:10.824Z,42.74
2022-10-20T03:53:42.212Z,42.81
2022-10-20T03:54:13.602Z,42.58
2022-10-20T03:54:45.105Z,43.28
2022-10-20T03:55:16.505Z,43.19
2022-10-20T03:55:47.919Z,42.85
2022-10-20T03:56:19.330Z,42.99
2022-10-20T03:56:50.722Z,43.02
2022-10-20T03:57:22.126Z,42.72
2022-10-20T03:57:53.519Z,42.89
2022-10-20T03:58:24.904Z,43.11
2022-10-20T03:58:56.315Z,42.80
2022-10-20T03:59:30.321Z,42.59
2022-10-20T04:00:02.140Z,43.17
2022-10-20T04:00:33.577Z,42.81
2022-10-20T04:01:04.988Z,42.92
2022-10-20T04:01:36.526Z,43.00
2022-10-20T04:02:08.116Z,42.75
2022-10-20T04:02:39.690Z,42.87
2022-10-20T04:03:11.214Z,43.18
2022-10-20T04:03:42.603Z,43.13
2022-10-20T04:04:13.995Z,42.84
2022-10-20T04:04:45.410Z,43.20
2022-10-20T04:05:16.899Z,43.08
2022-10-20T04:05:48.284Z,42.84
2022-10-20T04:06:19.696Z,43.08
2022-10-20T04:06:51.101Z,43.14
2022-10-20T04:07:22.492Z,43.00
2022-10-20T04:07:53.895Z,42.92
2022-10-20T04:08:25.378Z,42.98
2022-10-20T04:08:56.871Z,42.96
2022-10-20T04:09:28.330Z,43.01
2022-10-20T04:09:59.726Z,43.30
2022-10-20T04:10:31.277Z,43.07
2022-10-20T04:11:02.663Z,42.89
2022-10-20T04:11:34.049Z,42.88
2022-10-20T04:12:05.433Z,42.96
2022-10-20T04:12:37.100Z,42.85
2022-10-20T04:13:09.335Z,42.93
2022-10-20T04:13:40.796Z,43.28
2022-10-20T04:14:12.187Z,43.08
2022-10-20T04:14:43.579Z,42.98
2022-10-20T04:15:14.990Z,43.02
2022-10-20T04:15:46.469Z,42.79
2022-10-20T04:16:17.883Z,42.77
2022-10-20T04:16:49.267Z,43.07
2022-10-20T04:17:20.662Z,43.16
2022-10-20T04:17:52.051Z,43.24
2022-10-20T04:18:23.462Z,43.21
2022-10-20T04:18:54.844Z,43.10
2022-10-20T04:19:26.225Z,43.26
2022-10-20T04:19:57.624Z,43.13
2022-10-20T04:20:29.021Z,43.40
2022-10-20T04:21:00.513Z,43.40
2022-10-20T04:21:31.895Z,43.34
2022-10-20T04:22:03.284Z,43.16
2022-10-20T04:22:34.979Z,42.85
2022-10-20T04:23:06.614Z,43.00
2022-10-20T04:23:38.024Z,43.57
2022-10-20T04:24:09.417Z,42.94
2022-10-20T04:24:40.819Z,43.32
2022-10-20T04:25:12.225Z,43.32
2022-10-20T04:25:43.628Z,43.20
2022-10-20T04:26:15.047Z,43.28
2022-10-20T04:26:46.475Z,43.30
2022-10-20T04:27:17.899Z,43.05
2022-10-20T04:27:49.301Z,43.29
2022-10-20T04:28:20.702Z,43.38
2022-10-20T04:28:52.109Z,42.79
2022-10-20T04:29:23.497Z,43.00
2022-10-20T04:29:54.884Z,43.08
2022-10-20T04:30:26.270Z,43.24
2022-10-20T04:30:57.815Z,43.03
2022-10-20T04:31:29.260Z,42.80
2022-10-20T04:32:00.667Z,43.44
2022-10-20T04:32:32.071Z,42.91
2022-10-20T04:33:03.465Z,43.17
2022-10-20T04:33:34.872Z,42.97
2022-10-20T04:34:06.268Z,43.40
2022-10-20T04:34:37.665Z,43.18
2022-10-20T04:35:09.052Z,42.94
2022-10-20T04:35:40.566Z,43.15
2022-10-20T04:36:11.989Z,43.31
2022-10-20T04:36:43.513Z,43.15
2022-10-20T04:37:14.896Z,43.23
2022-10-20T04:37:46.285Z,43.15
2022-10-20T04:38:17.679Z,43.43
2022-10-20T04:38:49.084Z,43.02
2022-10-20T04:39:20.473Z,43.49
2022-10-20T04:39:51.869Z,43.20
2022-10-20T04:40:23.259Z,43.15
2022-10-20T04:40:54.652Z,43.43
2022-10-20T04:41:26.038Z,43.48
2022-10-20T04:41:57.460Z,43.26
2022-10-20T04:42:28.869Z,43.03
2022-10-20T04:43:00.264Z,43.47
2022-10-20T04:43:31.668Z,42.98
2022-10-20T04:44:03.068Z,42.96
2022-10-20T04:44:34.456Z,43.48
2022-10-20T04:45:05.840Z,42.97
2022-10-20T04:45:37.225Z,43.33
2022-10-20T04:46:09.009Z,43.33
2022-10-20T04:46:40.548Z,42.90
2022-10-20T04:47:12.038Z,43.19
2022-10-20T04:47:43.429Z,43.26
2022-10-20T04:48:14.820Z,43.42
2022-10-20T04:48:46.213Z,43.57
2022-10-20T04:49:17.610Z,43.46
2022-10-20T04:49:49.004Z,42.84
2022-10-20T04:50:20.389Z,43.19
2022-10-20T04:50:51.768Z,42.93
2022-10-20T04:51:23.287Z,43.59
2022-10-20T04:51:58.643Z,43.35
2022-10-20T04:52:32.444Z,43.29
2022-10-20T04:53:03.849Z,43.35
2022-10-20T04:53:35.236Z,43.38
2022-10-20T04:54:06.630Z,43.33
2022-10-20T04:54:38.017Z,43.17
2022-10-20T04:55:09.396Z,43.42
2022-10-20T04:55:40.782Z,43.44
2022-10-20T04:56:12.186Z,43.53
2022-10-20T04:56:43.572Z,43.35
2022-10-20T04:57:14.967Z,43.46
2022-10-20T04:57:46.412Z,43.45
2022-10-20T04:58:17.801Z,43.47
2022-10-20T04:58:49.187Z,43.61
2022-10-20T04:59:20.578Z,43.08
2022-10-20T04:59:51.964Z,43.67
2022-10-20T05:00:23.365Z,43.45
2022-10-20T05:00:54.756Z,43.46
2022-10-20T05:01:26.172Z,43.64
2022-10-20T05:01:57.657Z,43.47
2022-10-20T05:02:29.092Z,43.39
2022-10-20T05:03:00.591Z,43.29
2022-10-20T05:03:32.020Z,43.32
2022-10-20T05:04:03.424Z,43.23
2022-10-20T05:04:34.818Z,43.12
2022-10-20T05:05:06.223Z,43.60
2022-10-20T05:05:37.614Z,43.67
2022-10-20T05:06:09.025Z,43.45
2022-10-20T05:06:40.466Z,43.39
2022-10-20T05:07:11.876Z,43.18
2022-10-20T05:07:43.269Z,42.99
2022-10-20T05:08:14.832Z,43.39
2022-10-20T05:08:46.232Z,43.63
2022-10-20T05:09:17.641Z,43.33
2022-10-20T05:09:49.023Z,43.25
2022-10-20T05:10:20.430Z,43.62
2022-10-20T05:10:51.828Z,43.15
2022-10-20T05:11:23.244Z,43.41
2022-10-20T05:11:54.763Z,43.50
2022-10-20T05:12:26.172Z,43.79
2022-10-20T05:12:57.558Z,43.64
2022-10-20T05:13:29.102Z,43.28
2022-10-20T05:14:00.510Z,43.09
2022-10-20T05:14:31.917Z,43.40
2022-10-20T05:15:03.329Z,43.61
2022-10-20T05:15:34.719Z,43.34
2022-10-20T05:16:06.108Z,43.45
2022-10-20T05:16:37.502Z,43.46
2022-10-20T05:17:10.046Z,43.57
2022-10-20T05:17:41.621Z,43.13
2022-10-20T05:18:13.024Z,43.42
2022-10-20T05:18:44.484Z,43.27
2022-10-20T05:19:15.872Z,43.37
2022-10-20T05:19:47.267Z,43.45
2022-10-20T05:20:18.661Z,43.46
2022-10-20T05:21:08.322Z,43.93
2022-10-20T05:22:16.372Z,43.73
2022-10-20T05:22:47.779Z,43.35
2022-10-20T05:23:19.164Z,43.56
2022-10-20T05:23:50.670Z,43.56
2022-10-20T05:24:22.858Z,43.59
2022-10-20T05:24:58.420Z,43.43
2022-10-20T05:25:36.774Z,43.44
2022-10-20T05:26:08.470Z,43.22
2022-10-20T05:26:39.861Z,43.63
2022-10-20T05:27:11.253Z,43.46
2022-10-20T05:27:42.643Z,43.64
2022-10-20T05:28:14.042Z,43.37
2022-10-20T05:28:45.476Z,43.67
2022-10-20T05:29:16.879Z,43.21
2022-10-20T05:29:48.276Z,43.68
2022-10-20T05:30:19.684Z,43.62
2022-10-20T05:30:51.082Z,43.46
2022-10-20T05:31:22.469Z,43.21
2022-10-20T05:31:53.852Z,43.80
2022-10-20T05:32:25.255Z,43.35
2022-10-20T05:32:56.640Z,43.70
2022-10-20T05:33:28.028Z,43.57
2022-10-20T05:33:59.494Z,43.32
2022-10-20T05:34:30.913Z,43.26
2022-10-20T05:35:02.309Z,43.47
2022-10-20T05:35:33.706Z,43.54
2022-10-20T05:36:05.097Z,43.51
2022-10-20T05:36:36.854Z,43.56
2022-10-20T05:37:08.405Z,43.21
2022-10-20T05:37:39.810Z,43.28
2022-10-20T05:38:11.207Z,43.88
2022-10-20T05:38:42.855Z,43.33
2022-10-20T05:39:14.422Z,43.56
2022-10-20T05:39:45.878Z,43.77
2022-10-20T05:40:17.269Z,43.88
2022-10-20T05:40:48.725Z,43.68
2022-10-20T05:41:20.286Z,43.95
2022-10-20T05:41:52.197Z,43.92
2022-10-20T05:42:23.732Z,43.81
2022-10-20T05:42:58.017Z,43.90
2022-10-20T05:43:29.411Z,43.79
2022-10-20T05:44:00.812Z,43.63
2022-10-20T05:44:32.262Z,43.53
2022-10-20T05:45:03.652Z,43.43
2022-10-20T05:45:35.046Z,43.67
2022-10-20T05:46:06.517Z,43.33
2022-10-20T05:46:37.924Z,43.67
2022-10-20T05:47:09.331Z,43.91
2022-10-20T05:47:40.725Z,43.54
2022-10-20T05:48:12.117Z,43.93
2022-10-20T05:48:43.508Z,43.95
2022-10-20T05:49:17.361Z,43.74
2022-10-20T05:49:51.217Z,43.67
2022-10-20T05:50:23.220Z,43.82
2022-10-20T05:50:55.360Z,43.72
2022-10-20T05:51:27.449Z,43.38
2022-10-20T05:51:59.138Z,43.91
2022-10-20T05:52:30.800Z,43.80
2022-10-20T05:53:02.751Z,43.62
2022-10-20T05:53:35.293Z,43.89
2022-10-20T05:54:07.239Z,43.98
2022-10-20T05:54:39.032Z,44.01
2022-10-20T05:55:12.429Z,43.77
2022-10-20T05:55:44.136Z,43.50
2022-10-20T05:56:15.819Z,43.50
2022-10-20T05:56:48.117Z,43.61
2022-10-20T05:57:19.828Z,43.83
2022-10-20T05:57:51.557Z,43.68
2022-10-20T05:58:23.222Z,43.98
2022-10-20T05:58:54.751Z,44.20
2022-10-20T05:59:26.256Z,43.80
2022-10-20T05:59:57.682Z,44.02
2022-10-20T06:00:30.260Z,43.86
2022-10-20T06:01:02.001Z,43.96
2022-10-20T06:02:10.093Z,44.23
2022-10-20T06:02:41.819Z,44.18
2022-10-20T06:03:16.183Z,43.84
2022-10-20T06:03:50.541Z,44.03
2022-10-20T06:04:22.033Z,44.09
2022-10-20T06:04:53.802Z,43.82
2022-10-20T06:05:25.226Z,44.06
2022-10-20T06:05:56.873Z,44.13
2022-10-20T06:06:28.488Z,44.35
2022-10-20T06:07:00.002Z,43.94
2022-10-20T06:07:31.709Z,44.10
2022-10-20T06:08:03.227Z,44.13
2022-10-20T06:08:34.803Z,43.86
2022-10-20T06:09:08.744Z,44.20
2022-10-20T06:09:41.573Z,44.36
2022-10-20T06:10:13.121Z,44.32
2022-10-20T06:10:44.673Z,44.07
2022-10-20T06:11:16.231Z,44.46
2022-10-20T06:11:47.680Z,43.79
2022-10-20T06:12:19.207Z,43.91
2022-10-20T06:12:50.642Z,43.76
2022-10-20T06:13:22.336Z,44.17
2022-10-20T06:13:53.863Z,44.61
2022-10-20T06:14:25.477Z,43.97
2022-10-20T06:14:56.978Z,44.21
2022-10-20T06:15:28.527Z,44.36
2022-10-20T06:16:00.032Z,44.33
2022-10-20T06:16:31.568Z,44.34
2022-10-20T06:17:03.101Z,44.50
2022-10-20T06:17:34.715Z,44.03
2022-10-20T06:18:06.264Z,44.07
2022-10-20T06:18:38.085Z,44.26
2022-10-20T06:19:09.567Z,44.43
2022-10-20T06:19:40.999Z,44.33
2022-10-20T06:20:12.389Z,44.43
2022-10-20T06:20:44.172Z,44.23
2022-10-20T06:21:15.560Z,44.11
2022-10-20T06:21:48.902Z,44.35
2022-10-20T06:22:21.022Z,44.50
2022-10-20T06:22:52.436Z,44.47
2022-10-20T06:23:23.828Z,44.73
2022-10-20T06:23:55.243Z,44.26
2022-10-20T06:24:26.648Z,44.72
2022-10-20T06:24:58.055Z,44.35
2022-10-20T06:25:29.448Z,44.18
2022-10-20T06:26:00.881Z,44.70
2022-10-20T06:26:32.389Z,44.08
2022-10-20T06:27:03.793Z,44.11
2022-10-20T06:27:35.204Z,44.73
2022-10-20T06:28:06.667Z,44.21
2022-10-20T06:28:38.088Z,44.26
2022-10-20T06:29:09.553Z,44.43
2022-10-20T06:29:40.957Z,44.46
2022-10-20T06:30:12.656Z,44.59
2022-10-20T06:30:44.040Z,44.27
2022-10-20T06:31:15.670Z,44.71
2022-10-20T06:31:47.100Z,44.58
2022-10-20T06:32:18.639Z,44.25
2022-10-20T06:32:50.126Z,44.51
2022-10-20T06:33:21.514Z,44.66
2022-10-20T06:33:52.932Z,44.12
2022-10-20T06:34:24.326Z,44.19
2022-10-20T06:34:55.727Z,44.21
2022-10-20T06:35:27.120Z,44.10
2022-10-20T06:35:58.533Z,44.52
2022-10-20T06:36:29.938Z,44.44
2022-10-20T06:37:01.477Z,44.34
2022-10-20T06:37:33.951Z,44.64
2022-10-20T06:38:05.505Z,44.19
2022-10-20T06:38:36.988Z,44.38
2022-10-20T06:39:08.405Z,44.32
2022-10-20T06:39:39.804Z,44.59
2022-10-20T06:40:11.229Z,44.74
2022-10-20T06:40:42.941Z,44.51
2022-10-20T06:41:14.342Z,44.57
2022-10-20T06:41:45.732Z,44.68
2022-10-20T06:42:17.368Z,44.83
2022-10-20T06:42:48.801Z,44.52
2022-10-20T06:43:20.612Z,44.72
2022-10-20T06:43:52.537Z,44.76
2022-10-20T06:44:24.021Z,44.34
2022-10-20T06:44:55.422Z,44.46
2022-10-20T06:45:26.836Z,44.62
2022-10-20T06:45:58.222Z,44.62
2022-10-20T06:46:29.926Z,44.57
2022-10-20T06:47:01.313Z,44.52
2022-10-20T06:47:32.783Z,44.52
2022-10-20T06:48:04.209Z,44.68
2022-10-20T06:48:35.598Z,44.49